Time;durP1;ratioP1;P1;durP2;ratioP2;P2;SDS_P1;SDS_P2;PMS_P1;PMS_P2;Temp;Humidity;BMP_temperature;BMP_pressure;BME280_temperature;BME280_humidity;BME280_pressure;Samples;Min_cycle;Max_cycle;Signal;HPM_P1;HPM_P2
2021/05/14 00:02:31;;;;;;;1.53;1.43;;;19.50;35.70;;;;;;8327968;28;20410;-46
2021/05/14 00:06:32;;;;;;;2.27;1.00;;;19.50;35.70;;;;;;8327936;28;20041;-46
2021/05/14 00:10:36;;;;;;;1.73;1.00;;;19.50;35.70;;;;;;8325970;28;20044;-46
2021/05/14 00:14:37;;;;;;;1.05;0.80;;;19.40;35.70;;;;;;8332305;28;20395;-45
2021/05/14 00:18:37;;;;;;;1.37;1.00;;;19.40;35.70;;;;;;8327361;28;20049;-47
2021/05/14 00:22:38;;;;;;;1.43;1.10;;;19.40;35.70;;;;;;8325502;28;20394;-46
2021/05/14 00:26:38;;;;;;;1.20;1.10;;;19.50;35.80;;;;;;8327152;28;20051;-46
2021/05/14 00:30:39;;;;;;;1.27;0.93;;;19.40;35.70;;;;;;8331335;28;20040;-46
2021/05/14 00:34:39;;;;;;;1.57;0.90;;;19.40;35.70;;;;;;8325483;28;20128;-50
2021/05/14 00:38:40;;;;;;;2.20;1.30;;;19.40;35.70;;;;;;8326810;28;20505;-48
2021/05/14 00:42:41;;;;;;;1.20;0.90;;;19.40;35.70;;;;;;8326634;28;20132;-47
2021/05/14 00:46:41;;;;;;;1.20;0.90;;;19.40;35.70;;;;;;8329590;28;20048;-46
2021/05/14 00:50:42;;;;;;;1.83;1.20;;;19.40;35.70;;;;;;8326410;28;20033;-45
2021/05/14 00:54:44;;;;;;;1.03;0.80;;;19.40;35.80;;;;;;8326487;28;20103;-45
2021/05/14 00:58:45;;;;;;;1.38;0.93;;;19.30;35.70;;;;;;8324928;28;20034;-46
2021/05/14 01:02:47;;;;;;;1.05;0.82;;;19.30;35.70;;;;;;8326187;28;20045;-47
2021/05/14 01:06:48;;;;;;;1.13;0.90;;;19.30;35.70;;;;;;8330612;28;20041;-47
2021/05/14 01:10:51;;;;;;;0.97;0.83;;;19.30;35.80;;;;;;8324111;28;20466;-46
2021/05/14 01:14:51;;;;;;;1.58;0.98;;;19.30;35.80;;;;;;8341261;28;20132;-45
2021/05/14 01:18:53;;;;;;;1.37;1.00;;;19.30;36.30;;;;;;8325691;28;20430;-46
2021/05/14 01:22:54;;;;;;;1.13;0.98;;;19.30;35.80;;;;;;8328033;28;20136;-47
2021/05/14 01:26:55;;;;;;;1.30;1.20;;;19.30;35.80;;;;;;8325629;28;20437;-45
2021/05/14 01:30:55;;;;;;;0.73;0.73;;;19.30;35.80;;;;;;8325459;28;20048;-47
2021/05/14 01:34:56;;;;;;;1.10;0.90;;;19.20;35.70;;;;;;8323608;28;20037;-47
2021/05/14 01:39:03;;;;;;;2.17;1.10;;;19.20;35.70;;;;;;8325233;28;20492;-45
2021/05/14 01:43:04;;;;;;;0.88;0.80;;;19.20;35.70;;;;;;8329615;28;20050;-46
2021/05/14 01:47:04;;;;;;;1.60;0.97;;;19.30;35.80;;;;;;8323635;28;20378;-45
2021/05/14 01:51:16;;;;;;;1.90;0.97;;;19.20;35.70;;;;;;8325372;28;20034;-46
2021/05/14 01:55:17;;;;;;;1.30;0.80;;;19.20;35.80;;;;;;8325419;28;20029;-46
2021/05/14 01:59:18;;;;;;;1.83;1.00;;;19.20;35.70;;;;;;8320386;28;20061;-46
2021/05/14 02:03:19;;;;;;;1.92;1.50;;;19.20;35.80;;;;;;8294379;28;20468;-46
2021/05/14 02:07:19;;;;;;;1.33;1.10;;;19.20;35.80;;;;;;8298996;28;20063;-45
2021/05/14 02:11:20;;;;;;;1.00;0.90;;;19.20;35.80;;;;;;8321511;28;20474;-47
2021/05/14 02:15:20;;;;;;;1.97;1.03;;;19.20;35.80;;;;;;8298692;28;20030;-46
2021/05/14 02:19:21;;;;;;;1.07;0.80;;;19.20;35.80;;;;;;8302847;28;20045;-46
2021/05/14 02:23:22;;;;;;;1.20;1.10;;;19.10;35.70;;;;;;8329143;28;20042;-46
2021/05/14 02:27:23;;;;;;;1.33;1.08;;;19.10;35.70;;;;;;8331008;28;20092;-46
2021/05/14 02:31:23;;;;;;;1.77;1.00;;;19.10;35.70;;;;;;8330823;28;20029;-45
2021/05/14 02:35:24;;;;;;;1.17;0.70;;;19.10;35.70;;;;;;8333463;28;20060;-46
2021/05/14 02:39:24;;;;;;;2.13;0.90;;;19.10;35.70;;;;;;8331098;28;20418;-45
2021/05/14 02:43:25;;;;;;;0.97;0.90;;;19.10;35.70;;;;;;8328785;28;20049;-45
2021/05/14 02:47:27;;;;;;;1.63;1.10;;;19.00;35.70;;;;;;8330744;28;20029;-47
2021/05/14 02:51:28;;;;;;;1.77;0.82;;;19.00;35.70;;;;;;8334867;28;20033;-46
2021/05/14 02:55:28;;;;;;;0.97;0.83;;;19.10;35.70;;;;;;8328523;28;20045;-46
2021/05/14 02:59:29;;;;;;;1.07;0.80;;;19.00;35.70;;;;;;8329865;28;20049;-46
2021/05/14 03:03:30;;;;;;;2.33;0.80;;;19.00;35.70;;;;;;8329782;28;20080;-46
2021/05/14 03:07:30;;;;;;;1.03;0.77;;;19.00;35.70;;;;;;8327797;28;20046;-46
2021/05/14 03:11:31;;;;;;;2.17;1.03;;;19.00;35.70;;;;;;8334180;28;20036;-46
2021/05/14 03:15:32;;;;;;;1.00;0.87;;;19.00;35.70;;;;;;8329462;28;20117;-47
2021/05/14 03:19:32;;;;;;;1.37;1.00;;;19.00;35.70;;;;;;8328001;28;20386;-46
2021/05/14 03:23:33;;;;;;;1.27;0.80;;;19.00;35.70;;;;;;8329416;28;20045;-47
2021/05/14 03:27:33;;;;;;;1.73;1.00;;;19.00;35.70;;;;;;8333660;28;20049;-45
2021/05/14 03:31:34;;;;;;;1.20;0.90;;;19.00;35.70;;;;;;8327262;28;20119;-46
2021/05/14 03:35:34;;;;;;;1.00;0.90;;;19.00;35.70;;;;;;8329420;28;20458;-49
2021/05/14 03:39:46;;;;;;;1.10;0.77;;;18.90;35.60;;;;;;8328974;28;20037;-46
2021/05/14 03:43:47;;;;;;;2.65;1.00;;;18.90;35.70;;;;;;8326964;28;20382;-46
2021/05/14 03:47:48;;;;;;;0.93;0.80;;;19.00;35.70;;;;;;8333273;28;20041;-45
2021/05/14 03:51:49;;;;;;;0.98;0.80;;;18.90;35.60;;;;;;8328233;28;20040;-45
2021/05/14 03:55:50;;;;;;;2.40;0.80;;;18.90;35.60;;;;;;8326730;28;20029;-46
2021/05/14 03:59:51;;;;;;;1.27;1.00;;;18.90;35.60;;;;;;8328352;28;20398;-47
2021/05/14 04:03:51;;;;;;;0.90;0.87;;;18.90;35.60;;;;;;8332610;28;20057;-46
2021/05/14 04:07:54;;;;;;;1.53;1.10;;;19.00;35.70;;;;;;8326579;28;20037;-47
2021/05/14 04:16:01;;;;;;;1.45;0.90;;;18.90;35.70;;;;;;8327784;28;20025;-46
2021/05/14 04:20:02;;;;;;;1.20;1.00;;;18.90;35.70;;;;;;8326943;28;20108;-45
2021/05/14 04:24:05;;;;;;;0.95;0.85;;;18.90;35.60;;;;;;8330744;28;20045;-46
2021/05/14 04:28:06;;;;;;;1.13;0.95;;;18.90;35.60;;;;;;8326973;28;20034;-46
2021/05/14 04:32:07;;;;;;;2.78;1.35;;;18.90;35.70;;;;;;8325319;28;20113;-46
2021/05/14 04:36:07;;;;;;;0.87;0.80;;;18.90;35.60;;;;;;8326670;28;20034;-50
2021/05/14 04:40:08;;;;;;;1.00;0.77;;;18.90;35.70;;;;;;8331311;28;20046;-47
2021/05/14 04:44:09;;;;;;;1.27;1.00;;;18.90;35.70;;;;;;8294905;28;20053;-45
2021/05/14 04:48:10;;;;;;;2.60;0.90;;;18.90;35.60;;;;;;8294286;28;20467;-46
2021/05/14 04:52:19;;;;;;;1.25;0.70;;;18.90;35.70;;;;;;8293737;28;20038;-46
2021/05/14 04:56:20;;;;;;;1.20;1.00;;;18.90;35.60;;;;;;8296478;28;20049;-47
2021/05/14 05:00:21;;;;;;;0.97;0.80;;;18.90;35.60;;;;;;8309137;28;20398;-47
2021/05/14 05:04:22;;;;;;;1.13;0.93;;;18.90;35.60;;;;;;8325719;28;20047;-46
2021/05/14 05:08:22;;;;;;;1.15;0.95;;;18.80;35.60;;;;;;8324569;28;20034;-46
2021/05/14 05:12:23;;;;;;;1.60;0.97;;;18.80;35.60;;;;;;8325844;28;20029;-46
2021/05/14 05:16:23;;;;;;;1.57;0.80;;;18.80;35.60;;;;;;8330182;28;20469;-47
2021/05/14 05:20:24;;;;;;;1.77;1.10;;;18.80;35.60;;;;;;8323925;28;20045;-47
2021/05/14 05:24:25;;;;;;;2.30;1.07;;;18.80;35.60;;;;;;8325668;28;20052;-46
2021/05/14 05:28:27;;;;;;;1.63;1.03;;;18.80;35.60;;;;;;8323723;28;20021;-46
2021/05/14 05:32:28;;;;;;;1.05;0.90;;;18.80;35.60;;;;;;8329809;28;20532;-46
2021/05/14 05:36:29;;;;;;;1.50;1.03;;;18.80;35.60;;;;;;8324945;28;20069;-46
2021/05/14 05:40:30;;;;;;;;;;;18.90;35.60;;;;;;8323398;28;20064;-46
2021/05/14 05:44:30;;;;;;;1.03;0.90;;;18.90;35.50;;;;;;8325047;28;19991;-45
2021/05/14 05:48:31;;;;;;;1.10;1.00;;;18.90;35.50;;;;;;8323710;28;20484;-45
2021/05/14 05:52:32;;;;;;;2.10;1.07;;;18.90;35.40;;;;;;8327591;28;20033;-46
2021/05/14 05:56:33;;;;;;;1.45;0.90;;;18.90;35.50;;;;;;8324912;28;20124;-46
2021/05/14 06:00:34;;;;;;;1.80;0.80;;;18.90;35.50;;;;;;8324967;28;20095;-48
2021/05/14 06:04:34;;;;;;;1.20;0.83;;;18.90;35.50;;;;;;8322942;28;20049;-47
2021/05/14 06:08:36;;;;;;;1.40;1.00;;;18.90;35.50;;;;;;8329054;28;20040;-46
2021/05/14 06:12:36;;;;;;;;;;;18.90;35.60;;;;;;8325204;28;20033;-45
2021/05/14 06:16:37;;;;;;;0.85;0.70;;;18.90;35.60;;;;;;8323142;28;20380;-47
2021/05/14 06:20:39;;;;;;;1.17;0.90;;;18.80;35.60;;;;;;8324478;28;20121;-46
2021/05/14 06:24:40;;;;;;;1.35;1.10;;;18.90;35.60;;;;;;8328965;28;20053;-46
2021/05/14 06:28:40;;;;;;;0.77;0.73;;;18.90;35.60;;;;;;8323009;28;20033;-47
2021/05/14 06:32:41;;;;;;;1.40;1.30;;;18.90;35.50;;;;;;8324521;28;20026;-46
2021/05/14 06:36:41;;;;;;;1.37;0.80;;;18.90;35.50;;;;;;8324126;28;20034;-47
2021/05/14 06:40:42;;;;;;;1.47;1.00;;;18.90;35.40;;;;;;8322756;28;20135;-48
2021/05/14 06:44:43;;;;;;;1.10;0.83;;;19.00;35.40;;;;;;8329132;28;20048;-47
2021/05/14 06:48:46;;;;;;;0.75;0.75;;;19.00;35.30;;;;;;8325398;28;20041;-47
2021/05/14 06:52:47;;;;;;;0.90;0.85;;;19.00;35.20;;;;;;8328599;28;20048;-47
2021/05/14 06:56:47;;;;;;;1.13;0.77;;;19.10;35.20;;;;;;8329996;28;20037;-47
2021/05/14 07:00:48;;;;;;;1.10;0.90;;;19.10;35.10;;;;;;8334483;28;20036;-46
2021/05/14 07:04:48;;;;;;;1.03;0.97;;;19.10;35.60;;;;;;8328291;28;20128;-47
2021/05/14 07:08:49;;;;;;;0.83;0.77;;;19.20;35.10;;;;;;8318065;28;20048;-47
2021/05/14 07:12:51;;;;;;;1.70;1.00;;;19.10;35.10;;;;;;8317048;28;20028;-47
2021/05/14 07:16:51;;;;;;;1.40;0.68;;;19.10;35.10;;;;;;8300779;28;20434;-47
2021/05/14 07:20:52;;;;;;;1.27;1.03;;;19.10;35.20;;;;;;8299758;28;20041;-48
2021/05/14 07:24:53;;;;;;;1.13;0.98;;;19.00;35.30;;;;;;8296625;28;20200;-47
2021/05/14 07:28:54;;;;;;;0.80;0.80;;;19.10;35.30;;;;;;8323947;28;20033;-47
2021/05/14 07:32:56;;;;;;;1.15;1.02;;;19.00;35.40;;;;;;8329069;28;20034;-46
2021/05/14 07:36:57;;;;;;;1.13;0.90;;;19.00;35.40;;;;;;8333595;28;20037;-45
2021/05/14 07:40:58;;;;;;;0.97;0.87;;;19.00;35.50;;;;;;8327256;28;20116;-47
2021/05/14 07:44:58;;;;;;;1.20;0.90;;;19.00;35.50;;;;;;8329011;28;20076;-47
2021/05/14 07:48:59;;;;;;;1.00;0.90;;;19.00;35.60;;;;;;8328474;28;20506;-48
2021/05/14 07:53:01;;;;;;;1.87;0.93;;;19.00;35.60;;;;;;8331323;28;20041;-47
2021/05/14 07:57:01;;;;;;;1.00;0.90;;;19.00;35.60;;;;;;8328360;28;20040;-47
2021/05/14 08:01:02;;;;;;;1.00;0.90;;;19.00;35.60;;;;;;8326870;28;20402;-47
2021/05/14 08:05:03;;;;;;;1.40;0.80;;;19.00;35.60;;;;;;8326624;28;20050;-47
2021/05/14 08:09:07;;;;;;;0.80;0.80;;;19.10;35.60;;;;;;8327846;28;20397;-48
2021/05/14 08:13:08;;;;;;;2.20;1.50;;;19.10;35.70;;;;;;8332154;28;20268;-47
2021/05/14 08:17:08;;;;;;;2.27;1.57;;;19.10;35.70;;;;;;8325893;28;20060;-48
2021/05/14 08:21:09;;;;;;;3.07;2.07;;;19.10;36.20;;;;;;8327275;28;20083;-49
2021/05/14 08:25:11;;;;;;;4.73;2.80;;;19.10;35.70;;;;;;8327374;28;20041;-46
2021/05/14 08:29:12;;;;;;;4.00;2.30;;;19.20;35.80;;;;;;8323712;28;20048;-48
2021/05/14 08:33:12;;;;;;;4.30;2.67;;;19.20;35.80;;;;;;8294531;28;20041;-47
2021/05/14 08:37:13;;;;;;;5.23;2.97;;;19.20;35.80;;;;;;8317256;28;20570;-47
2021/05/14 08:41:13;;;;;;;5.63;3.07;;;19.20;35.80;;;;;;8324746;28;20033;-51
2021/05/14 08:45:14;;;;;;;4.90;3.17;;;19.20;35.80;;;;;;8328948;28;20067;-48
2021/05/14 08:49:15;;;;;;;5.03;3.15;;;19.20;35.80;;;;;;8306717;28;20040;-47
2021/05/14 08:53:16;;;;;;;7.05;3.88;;;19.20;35.80;;;;;;8298139;28;20088;-48
2021/05/14 08:57:16;;;;;;;7.47;4.20;;;19.30;35.80;;;;;;8312478;28;20112;-49
2021/05/14 09:01:17;;;;;;;7.70;4.30;;;19.30;35.80;;;;;;8316847;28;20075;-47
2021/05/14 09:05:26;;;;;;;6.80;4.07;;;19.30;35.80;;;;;;8328776;28;20486;-47
2021/05/14 09:09:27;;;;;;;8.48;4.22;;;19.30;35.70;;;;;;8325943;28;20033;-47
2021/05/14 09:13:37;;;;;;;7.60;4.50;;;19.40;35.70;;;;;;8324092;28;20533;-46
2021/05/14 09:17:38;;;;;;;7.60;4.65;;;19.40;35.70;;;;;;8293214;28;20040;-48
2021/05/14 09:21:38;;;;;;;7.63;3.97;;;19.40;35.70;;;;;;8294778;28;20513;-47
2021/05/14 09:25:48;;;;;;;6.87;4.40;;;19.50;35.70;;;;;;8294176;28;20889;-48
2021/05/14 09:29:49;;;;;;;6.88;4.25;;;19.40;35.60;;;;;;8304240;28;20041;-47
2021/05/14 09:33:52;;;;;;;8.07;4.40;;;19.50;35.60;;;;;;8325838;28;20470;-46
2021/05/14 09:37:53;;;;;;;6.38;3.83;;;19.50;35.60;;;;;;8295614;28;20042;-47
2021/05/14 09:41:53;;;;;;;6.33;3.60;;;19.50;35.60;;;;;;8296948;28;20034;-47
2021/05/14 09:45:54;;;;;;;7.13;4.10;;;19.60;35.60;;;;;;8292133;28;20107;-47
2021/05/14 09:49:54;;;;;;;6.87;3.67;;;19.60;35.60;;;;;;8290999;28;20052;-47
2021/05/14 09:53:55;;;;;;;6.40;3.70;;;19.60;35.50;;;;;;8292206;28;20093;-48
2021/05/14 09:58:02;;;;;;;5.22;3.05;;;19.60;35.50;;;;;;8317096;28;20490;-47
2021/05/14 10:02:04;;;;;;;6.63;3.63;;;19.70;35.50;;;;;;8325548;28;20088;-49
2021/05/14 10:06:05;;;;;;;6.53;3.33;;;19.70;35.50;;;;;;8324466;28;20045;-46
2021/05/14 10:10:08;;;;;;;6.07;3.43;;;19.70;35.40;;;;;;8324458;28;20030;-49
2021/05/14 10:14:09;;;;;;;6.15;3.63;;;19.70;35.40;;;;;;8323272;28;20374;-48
2021/05/14 10:18:17;;;;;;;7.00;3.73;;;19.80;35.40;;;;;;8329001;28;20171;-49
2021/05/14 10:22:18;;;;;;;6.32;3.60;;;19.80;35.40;;;;;;8324539;28;20035;-48
2021/05/14 10:26:19;;;;;;;6.10;3.30;;;19.80;35.30;;;;;;8327982;28;20099;-48
2021/05/14 10:30:20;;;;;;;6.27;3.90;;;19.90;35.30;;;;;;8330951;28;20026;-49
2021/05/14 10:34:20;;;;;;;5.35;3.10;;;19.90;35.20;;;;;;8335153;28;20402;-51
2021/05/14 10:38:30;;;;;;;5.80;3.13;;;19.90;35.30;;;;;;8321563;28;20434;-46
2021/05/14 10:42:40;;;;;;;6.15;3.42;;;19.90;35.20;;;;;;8297779;28;20034;-47
2021/05/14 10:46:40;;;;;;;4.45;2.85;;;19.90;35.20;;;;;;8295746;28;20056;-47
2021/05/14 10:50:41;;;;;;;6.10;3.23;;;20.00;35.20;;;;;;8297984;28;20435;-50
2021/05/14 10:54:42;;;;;;;6.07;3.17;;;20.00;35.20;;;;;;8320594;28;20068;-47
2021/05/14 10:58:49;;;;;;;4.10;2.60;;;20.00;35.10;;;;;;8328811;28;20072;-47
2021/05/14 11:03:16;;;;;;;5.65;3.38;;;20.10;35.20;;;;;;8329678;28;20393;-47
2021/05/14 11:07:39;;;;;;;4.82;3.00;;;20.10;35.10;;;;;;8330003;28;20044;-51
2021/05/14 11:12:10;;;;;;;4.82;3.03;;;20.10;35.10;;;;;;8328405;28;20099;-51
2021/05/14 11:16:36;;;;;;;5.75;3.05;;;20.20;35.10;;;;;;8306687;28;20042;-50
2021/05/14 11:20:45;;;;;;;6.28;3.30;;;20.20;35.00;;;;;;8322267;28;20042;-48
2021/05/14 11:25:00;;;;;;;5.05;2.75;;;20.20;35.00;;;;;;8295930;28;20049;-47
2021/05/14 11:29:00;;;;;;;3.55;2.47;;;20.20;35.00;;;;;;8294550;28;20328;-45
2021/05/14 11:33:01;;;;;;;4.13;2.77;;;20.20;35.00;;;;;;8296186;28;20034;-50
2021/05/14 11:37:01;;;;;;;5.40;3.10;;;20.20;35.00;;;;;;8294997;28;20039;-47
2021/05/14 11:41:03;;;;;;;5.03;2.93;;;20.30;35.00;;;;;;8328618;28;20034;-50
2021/05/14 11:45:09;;;;;;;4.95;2.70;;;20.30;35.00;;;;;;8315346;28;20092;-47
2021/05/14 11:49:10;;;;;;;4.43;2.60;;;20.30;35.00;;;;;;8317923;28;20100;-51
2021/05/14 11:53:11;;;;;;;4.87;2.57;;;20.30;35.00;;;;;;8326389;28;20041;-47
2021/05/14 11:57:12;;;;;;;;;;;20.40;35.00;;;;;;8333005;28;20120;-50
2021/05/14 12:01:12;;;;;;;4.00;2.30;;;20.40;35.60;;;;;;8305172;28;19914;-47
2021/05/14 12:05:15;;;;;;;5.23;2.87;;;20.40;35.00;;;;;;8293731;28;20391;-47
2021/05/14 12:09:17;;;;;;;4.55;2.47;;;20.40;35.00;;;;;;8310351;28;20076;-46
2021/05/14 12:13:20;;;;;;;3.85;2.55;;;20.50;35.00;;;;;;8305400;28;20049;-46
2021/05/14 12:17:20;;;;;;;4.50;2.60;;;20.50;34.90;;;;;;8296530;28;20030;-46
2021/05/14 12:21:23;;;;;;;3.97;2.47;;;20.50;34.90;;;;;;8294792;28;20371;-45
2021/05/14 12:25:24;;;;;;;4.93;2.55;;;20.50;34.90;;;;;;8294659;28;20495;-50
2021/05/14 12:29:29;;;;;;;3.42;2.20;;;20.50;34.90;;;;;;8301202;28;20161;-49
2021/05/14 12:33:31;;;;;;;3.75;2.25;;;20.60;34.90;;;;;;8314463;28;20048;-50
2021/05/14 12:37:31;;;;;;;4.50;2.25;;;20.60;34.80;;;;;;8292423;28;20150;-51
2021/05/14 12:41:33;;;;;;;4.47;2.70;;;20.60;34.80;;;;;;8294240;28;20506;-46
2021/05/14 12:45:36;;;;;;;3.70;2.20;;;20.50;34.80;;;;;;8294113;28;20073;-50
2021/05/14 12:49:44;;;;;;;3.45;2.13;;;20.60;34.80;;;;;;8322583;28;20422;-49
2021/05/14 12:53:55;;;;;;;4.00;2.40;;;20.60;34.80;;;;;;8329812;28;20040;-47
2021/05/14 12:57:58;;;;;;;4.27;2.67;;;20.60;34.80;;;;;;8326015;28;20037;-50
2021/05/14 13:01:58;;;;;;;4.32;2.10;;;20.50;34.80;;;;;;8325406;28;20598;-51
2021/05/14 13:05:59;;;;;;;2.70;2.07;;;20.50;34.80;;;;;;8326597;28;20124;-46
2021/05/14 13:10:00;;;;;;;3.13;1.90;;;20.50;34.80;;;;;;8309352;28;20044;-51
2021/05/14 13:14:00;;;;;;;4.03;2.53;;;20.50;34.80;;;;;;8320983;28;20022;-46
2021/05/14 13:18:01;;;;;;;3.47;2.20;;;20.50;34.90;;;;;;8313147;28;20131;-47
2021/05/14 13:22:01;;;;;;;3.73;1.90;;;20.50;35.30;;;;;;8293250;28;20042;-50
2021/05/14 13:26:02;;;;;;;4.30;1.77;;;20.50;34.80;;;;;;8300800;28;20474;-47
2021/05/14 13:30:04;;;;;;;3.35;1.85;;;20.50;34.80;;;;;;8327636;28;20052;-50
2021/05/14 13:34:05;;;;;;;3.30;1.88;;;20.50;34.80;;;;;;8325587;28;20117;-47
2021/05/14 13:38:06;;;;;;;3.47;2.20;;;20.60;34.90;;;;;;8324230;28;20033;-47
2021/05/14 13:42:07;;;;;;;3.25;2.20;;;20.60;34.80;;;;;;8311851;28;20040;-50
2021/05/14 13:46:08;;;;;;;3.67;2.00;;;20.50;34.80;;;;;;8319074;28;20057;-47
2021/05/14 13:50:09;;;;;;;2.87;2.00;;;20.60;34.80;;;;;;8323491;28;20029;-50
2021/05/14 13:54:09;;;;;;;2.92;1.95;;;20.60;34.80;;;;;;8325455;28;20048;-47
2021/05/14 13:58:10;;;;;;;2.83;1.70;;;20.60;34.90;;;;;;8324577;28;20121;-50
2021/05/14 14:02:11;;;;;;;3.33;2.00;;;20.60;34.80;;;;;;8327431;28;20041;-49
2021/05/14 14:06:11;;;;;;;3.60;2.10;;;20.60;34.90;;;;;;8324088;28;20111;-49
2021/05/14 14:10:12;;;;;;;3.07;2.13;;;20.60;34.90;;;;;;8324542;28;20022;-48
2021/05/14 14:14:13;;;;;;;2.60;1.60;;;20.50;34.80;;;;;;8322729;28;20516;-47
2021/05/14 14:18:13;;;;;;;4.63;2.00;;;20.60;34.90;;;;;;8324409;28;20037;-50
2021/05/14 14:22:14;;;;;;;2.03;1.60;;;20.50;34.90;;;;;;8305836;28;20050;-47
2021/05/14 14:26:14;;;;;;;2.60;1.77;;;20.50;34.90;;;;;;8314150;28;20045;-50
2021/05/14 14:30:15;;;;;;;2.20;1.63;;;20.60;34.90;;;;;;8308906;28;20125;-48
2021/05/14 14:34:16;;;;;;;2.65;1.85;;;20.60;34.90;;;;;;8286886;28;20069;-48
2021/05/14 14:38:16;;;;;;;1.60;1.33;;;20.60;34.90;;;;;;8291816;28;20088;-47
2021/05/14 14:42:17;;;;;;;4.60;1.80;;;20.60;34.90;;;;;;8290542;28;20034;-47
2021/05/14 14:46:18;;;;;;;3.17;1.90;;;20.60;34.80;;;;;;8315039;28;20044;-49
2021/05/14 14:50:19;;;;;;;3.67;2.13;;;20.60;34.80;;;;;;8310475;28;20026;-47
2021/05/14 14:54:20;;;;;;;3.63;1.70;;;20.60;34.80;;;;;;8307381;28;20030;-48
2021/05/14 14:58:22;;;;;;;3.55;1.70;;;20.60;34.70;;;;;;8308787;28;20437;-45
2021/05/14 15:02:22;;;;;;;;;;;20.60;34.80;;;;;;8315870;28;20301;-49
2021/05/14 15:06:23;;;;;;;2.90;1.77;;;20.60;34.70;;;;;;8314253;28;19928;-47
2021/05/14 15:10:24;;;;;;;2.83;1.80;;;20.70;34.80;;;;;;8291641;28;20133;-46
2021/05/14 15:14:24;;;;;;;3.83;2.10;;;20.70;34.80;;;;;;8293435;28;20030;-49
2021/05/14 15:18:25;;;;;;;3.47;2.10;;;20.70;34.70;;;;;;8290183;28;20033;-50
2021/05/14 15:22:26;;;;;;;3.80;1.70;;;20.70;34.80;;;;;;8314091;28;20041;-48
2021/05/14 15:26:26;;;;;;;3.23;1.87;;;20.70;34.80;;;;;;8322399;28;20172;-48
2021/05/14 15:30:27;;;;;;;2.00;1.60;;;20.70;34.80;;;;;;8329214;28;20041;-47
2021/05/14 15:34:27;;;;;;;2.60;1.83;;;20.70;34.80;;;;;;8321932;28;20498;-49
2021/05/14 15:38:29;;;;;;;2.07;1.53;;;20.60;34.80;;;;;;8323812;28;20792;-49
2021/05/14 15:42:30;;;;;;;3.83;2.10;;;20.60;34.80;;;;;;8317871;28;20041;-49
2021/05/14 15:46:31;;;;;;;2.80;1.60;;;20.70;34.90;;;;;;8297753;28;20073;-49
2021/05/14 15:50:31;;;;;;;3.40;1.97;;;20.60;34.90;;;;;;8324592;28;20061;-50
2021/05/14 15:54:33;;;;;;;2.87;2.07;;;20.60;34.90;;;;;;8303662;28;20402;-48
2021/05/14 15:58:34;;;;;;;3.45;1.88;;;20.60;34.90;;;;;;8287654;28;20072;-47
2021/05/14 16:02:35;;;;;;;3.27;1.80;;;20.60;34.90;;;;;;8293027;28;20034;-50
2021/05/14 16:06:36;;;;;;;2.97;1.95;;;20.60;35.00;;;;;;8293594;28;20402;-48
2021/05/14 16:10:36;;;;;;;2.50;1.70;;;20.60;35.10;;;;;;8289331;28;20034;-50
2021/05/14 16:14:37;;;;;;;2.50;1.53;;;20.60;35.20;;;;;;8312749;28;20677;-50
2021/05/14 16:18:38;;;;;;;3.67;1.90;;;20.60;35.20;;;;;;8292635;28;20284;-47
2021/05/14 16:22:38;;;;;;;2.75;1.92;;;20.60;35.20;;;;;;8319965;28;20037;-51
2021/05/14 16:26:39;;;;;;;2.43;1.63;;;20.60;35.30;;;;;;8289203;28;20495;-49
2021/05/14 16:30:40;;;;;;;2.03;1.47;;;20.50;35.20;;;;;;8308876;28;20108;-48
2021/05/14 16:34:41;;;;;;;2.13;1.60;;;20.60;35.30;;;;;;8311635;28;20041;-52
2021/05/14 16:38:42;;;;;;;2.45;1.33;;;20.60;35.30;;;;;;8318226;28;20048;-49
2021/05/14 16:42:43;;;;;;;2.33;1.60;;;20.60;35.30;;;;;;8329199;28;20044;-48
2021/05/14 16:46:44;;;;;;;;;;;20.60;35.40;;;;;;8324060;28;20041;-48
2021/05/14 16:50:45;;;;;;;1.92;1.20;;;20.50;35.40;;;;;;8325918;28;19979;-48
2021/05/14 16:54:45;;;;;;;2.83;1.80;;;20.50;35.40;;;;;;8326170;28;20036;-47
2021/05/14 16:58:46;;;;;;;2.67;1.33;;;20.50;35.40;;;;;;8328799;28;20041;-50
2021/05/14 17:02:46;;;;;;;3.80;1.87;;;20.50;35.50;;;;;;8326102;28;20025;-51
2021/05/14 17:06:49;;;;;;;3.10;1.90;;;20.50;35.40;;;;;;8326075;28;20124;-47
2021/05/14 17:10:50;;;;;;;1.98;1.40;;;20.50;35.40;;;;;;8321064;28;20058;-48
2021/05/14 17:14:50;;;;;;;3.23;1.70;;;20.50;35.40;;;;;;8297891;28;20052;-52
2021/05/14 17:18:51;;;;;;;2.63;1.70;;;20.50;35.40;;;;;;8293384;28;20037;-47
2021/05/14 17:22:51;;;;;;;2.53;1.70;;;20.50;35.40;;;;;;8295072;28;20048;-51
2021/05/14 17:26:53;;;;;;;2.03;1.70;;;20.50;35.40;;;;;;8313581;28;20049;-47
2021/05/14 17:30:57;;;;;;;2.72;1.30;;;20.50;35.40;;;;;;8292715;28;20442;-48
2021/05/14 17:34:57;;;;;;;2.90;1.95;;;20.50;35.30;;;;;;8295703;28;20029;-48
2021/05/14 17:38:58;;;;;;;3.33;1.83;;;20.60;35.30;;;;;;8305607;28;20406;-49
2021/05/14 17:42:58;;;;;;;3.27;1.70;;;20.60;35.20;;;;;;8324893;28;20040;-49
2021/05/14 17:46:59;;;;;;;2.20;1.37;;;20.60;35.30;;;;;;8298649;28;20044;-49
2021/05/14 17:51:00;;;;;;;1.90;1.60;;;20.50;35.20;;;;;;8329206;28;20049;-49
2021/05/14 17:55:01;;;;;;;1.73;1.37;;;20.50;35.20;;;;;;8324877;28;20034;-51
2021/05/14 17:59:03;;;;;;;2.40;1.52;;;20.50;35.20;;;;;;8323156;28;20034;-49
2021/05/14 18:03:04;;;;;;;3.60;1.63;;;20.50;35.20;;;;;;8324650;28;20479;-50
2021/05/14 18:07:04;;;;;;;2.33;1.58;;;20.50;35.20;;;;;;8324822;28;20045;-47
2021/05/14 18:11:05;;;;;;;2.00;1.63;;;20.50;35.20;;;;;;8327458;28;20449;-48
2021/05/14 18:15:07;;;;;;;1.85;1.30;;;20.50;35.20;;;;;;8324321;28;20033;-51
2021/05/14 18:23:11;;;;;;;1.33;1.20;;;20.40;35.20;;;;;;8322498;28;20037;-50
2021/05/14 18:27:12;;;;;;;1.63;1.20;;;20.40;35.20;;;;;;8328576;28;20038;-49
2021/05/14 18:31:12;;;;;;;1.33;1.20;;;20.40;35.20;;;;;;8324099;28;20038;-50
2021/05/14 18:35:15;;;;;;;1.90;1.53;;;20.40;35.20;;;;;;8322754;28;20398;-49
2021/05/14 18:39:15;;;;;;;3.08;1.38;;;20.40;35.20;;;;;;8324083;28;20117;-48
2021/05/14 18:43:16;;;;;;;1.47;1.20;;;20.40;35.20;;;;;;8328809;28;20483;-49
2021/05/14 18:47:17;;;;;;;1.97;1.47;;;20.40;35.20;;;;;;8327328;28;20064;-47
2021/05/14 18:51:17;;;;;;;1.93;1.23;;;20.40;35.20;;;;;;8330315;28;20034;-49
2021/05/14 18:55:18;;;;;;;1.80;1.23;;;20.40;35.20;;;;;;8330394;28;20068;-47
2021/05/14 18:59:18;;;;;;;1.73;1.40;;;20.40;35.20;;;;;;8328681;28;20029;-48
2021/05/14 19:03:19;;;;;;;1.73;1.00;;;20.40;35.20;;;;;;8334516;28;20037;-47
2021/05/14 19:07:20;;;;;;;1.65;1.30;;;20.40;35.20;;;;;;8329731;28;20094;-47
2021/05/14 19:11:22;;;;;;;2.27;1.20;;;20.30;35.20;;;;;;8328199;28;20371;-47
2021/05/14 19:15:23;;;;;;;1.40;1.30;;;20.30;35.20;;;;;;8330210;28;20026;-47
2021/05/14 19:19:24;;;;;;;2.13;1.40;;;20.30;35.20;;;;;;8334007;28;20406;-48
2021/05/14 19:48:49;;;;;;;1.10;0.93;;;20.30;35.30;;;;;;8321321;28;20053;-48
2021/05/14 19:52:49;;;;;;;1.23;0.90;;;20.30;35.30;;;;;;8298991;28;20038;-50
2021/05/14 19:56:53;;;;;;;1.23;0.93;;;20.30;35.30;;;;;;8306021;28;20025;-50
2021/05/14 20:00:53;;;;;;;2.15;1.30;;;20.30;35.30;;;;;;8332805;28;20482;-48
2021/05/14 20:04:54;;;;;;;1.73;1.07;;;20.30;35.90;;;;;;8326442;28;20079;-50
2021/05/14 20:08:54;;;;;;;2.13;1.20;;;20.30;35.40;;;;;;8328078;28;20038;-51
2021/05/14 20:12:58;;;;;;;1.37;1.00;;;20.30;35.30;;;;;;8328041;28;20045;-47
2021/05/14 20:16:59;;;;;;;1.60;1.00;;;20.30;35.40;;;;;;8302823;28;20026;-47
2021/05/14 20:21:00;;;;;;;1.90;1.10;;;20.30;35.60;;;;;;8330786;28;20490;-47
2021/05/14 20:25:02;;;;;;;1.55;0.93;;;20.30;35.40;;;;;;8306143;28;20056;-47
2021/05/14 20:29:03;;;;;;;1.27;0.93;;;20.30;35.40;;;;;;8322794;28;20064;-49
2021/05/14 20:33:04;;;;;;;1.40;0.88;;;20.20;35.40;;;;;;8327569;28;20470;-48
2021/05/14 20:37:08;;;;;;;1.10;0.97;;;20.30;35.40;;;;;;8331681;28;20049;-47
2021/05/14 20:41:09;;;;;;;1.63;0.73;;;20.20;35.40;;;;;;8325524;28;20026;-48
2021/05/14 20:45:12;;;;;;;1.23;0.90;;;20.20;35.40;;;;;;8327140;28;20115;-49
2021/05/14 20:49:13;;;;;;;1.23;0.93;;;20.20;35.40;;;;;;8326699;28;20028;-49
2021/05/14 20:53:14;;;;;;;1.60;1.10;;;20.20;35.40;;;;;;8329570;28;20025;-47
2021/05/14 20:57:15;;;;;;;1.35;0.80;;;20.20;35.40;;;;;;8326425;28;20065;-47
2021/05/14 21:01:15;;;;;;;2.65;1.15;;;20.30;35.50;;;;;;8326563;28;20379;-47
2021/05/14 21:05:16;;;;;;;1.07;0.90;;;20.20;35.40;;;;;;8324786;28;20049;-49
2021/05/14 21:09:17;;;;;;;1.70;1.00;;;20.20;35.40;;;;;;8326219;28;20273;-48
2021/05/14 21:13:17;;;;;;;1.10;1.00;;;20.20;35.40;;;;;;8330533;28;20083;-49
2021/05/14 21:17:18;;;;;;;1.60;1.20;;;20.20;35.40;;;;;;8324629;28;20109;-47
2021/05/14 21:21:18;;;;;;;1.20;0.70;;;20.20;35.40;;;;;;8326013;28;20053;-48
2021/05/14 21:25:20;;;;;;;1.23;1.00;;;20.20;35.40;;;;;;8325969;28;20288;-50
2021/05/14 21:29:20;;;;;;;;;;;20.20;35.40;;;;;;8328864;28;20524;-49
2021/05/14 21:33:21;;;;;;;2.13;1.00;;;20.20;35.40;;;;;;8325856;28;19913;-49